Flight Track Log - Related Links

Times and Time Zones

All times are in EDT time to prevent confusion due to time zone crossing. See the N143DE flight status page for this flight to view local times or setup timezone preferences in your user account.

Time Position Orientation Groundspeed Altitude Reporting Facility
EDT Latitude Longitude Course Direction KTS MPH feet Rate Location/Type
Wed 01:36:15 AM 33.6500 -84.3667 90° East 167 192 3,400  Level Atlanta TRACON
Wed 01:37:15 AM 33.7000 -84.3500 15° North 174 200 5,300 1,750 Climbing Atlanta TRACON
Wed 01:38:15 AM 33.7500 -84.3667 345° North 194 223 6,900 1,550 Climbing Atlanta TRACON
Wed 01:39:15 AM 33.8167 -84.3667 360° North 200 230 8,400 1,382 Climbing Atlanta TRACON
Wed 01:40:47 AM 33.8939 -84.3642 North 221 254 10,400 1,303 Climbing Atlanta Center
Wed 01:41:47 AM 33.9544 -84.3644 360° North 215 247 11,700 1,700 Climbing Atlanta Center
Wed 01:42:47 AM 34.0025 -84.3619 North 191 220 13,800 1,700 Climbing Atlanta Center
Wed 01:43:47 AM 34.0483 -84.3622 North 165 190 15,100 1,250 Climbing Atlanta Center
Wed 01:44:47 AM 34.1047 -84.3650 358° North 170 196 16,300 1,150 Climbing Atlanta Center
Wed 01:45:47 AM 34.1633 -84.3678 358° North 195 224 17,400 950 Climbing Atlanta Center
Wed 01:46:47 AM 34.2153 -84.3703 358° North 195 224 18,200 900 Climbing Atlanta Center
Wed 01:47:47 AM 34.2697 -84.3731 358° North 195 224 19,200 950 Climbing Atlanta Center
Wed 01:48:47 AM 34.3239 -84.3758 358° North 195 224 20,100 850 Climbing Atlanta Center
Wed 01:49:47 AM 34.3781 -84.3811 355° North 200 230 20,900 800 Climbing Atlanta Center
Wed 01:50:47 AM 34.4344 -84.3814 360° North 194 223 21,700 700 Climbing Atlanta Center
Wed 01:51:47 AM 34.4931 -84.3892 354° North 199 229 22,300 750 Climbing Atlanta Center
Wed 01:52:47 AM 34.5492 -84.3894 360° North 199 229 23,200 750 Climbing Atlanta Center
Wed 01:53:47 AM 34.6056 -84.3947 356° North 199 229 23,800 600 Climbing Atlanta Center
Wed 01:54:47 AM 34.6619 -84.3975 358° North 199 229 24,400 550 Climbing Atlanta Center
Wed 01:55:47 AM 34.7119 -84.4000 358° North 199 229 24,900 300 Climbing Atlanta Center
Wed 01:56:47 AM 34.7725 -84.4056 356° North 209 241 25,000 100 Climbing Atlanta Center
Wed 01:57:47 AM 34.8394 -84.4083 358° North 224 258 25,100 50 Climbing Atlanta Center
Wed 01:58:47 AM 34.9081 -84.4086 360° North 236 272 25,100 -50 Level Atlanta Center
Wed 01:59:47 AM 34.9750 -84.4164 355° North 241 277 25,000 -50 Descending Atlanta Center
Wed 02:00:47 AM 35.0458 -84.4219 356° North 241 277 25,000  Level Atlanta Center
Wed 02:01:47 AM 35.1167 -84.4247 358° North 241 277 25,000  Level Atlanta Center
Wed 02:02:47 AM 35.1897 -84.4303 356° North 252 290 25,000  Level Atlanta Center
Wed 02:03:47 AM 35.2608 -84.4331 358° North 252 290 25,000  Level Atlanta Center
Wed 02:04:48 AM 35.3336 -84.4383 357° North 252 290 25,000  Level Atlanta Center
Wed 02:05:47 AM 35.4067 -84.4414 358° North 252 290 25,000  Level Atlanta Center
Wed 02:06:47 AM 35.4778 -84.4469 356° North 257 296 25,000  Level Atlanta Center
Wed 02:07:47 AM 35.5506 -84.4497 358° North 257 296 25,000  Level Atlanta Center
Wed 02:08:47 AM 35.6236 -84.4553 356° North 257 296 25,000  Level Atlanta Center
Wed 02:10:21 AM 35.7386 -84.4592 358° North 259 298 25,000  Level Indianapolis Center
Wed 02:11:22 AM 35.8103 -84.4636 357° North 259 298 25,000  Level Indianapolis Center
Wed 02:12:22 AM 35.8822 -84.4683 357° North 261 300 25,000  Level Indianapolis Center
Wed 02:13:22 AM 35.9539 -84.4725 357° North 260 299 25,000  Level Indianapolis Center
Wed 02:14:22 AM 36.0269 -84.4769 357° North 263 303 25,000  Level Indianapolis Center
Wed 02:15:22 AM 36.0997 -84.4814 357° North 263 303 25,000  Level Indianapolis Center
Wed 02:16:23 AM 36.1733 -84.4864 357° North 265 305 25,000  Level Indianapolis Center
Wed 02:17:23 AM 36.2472 -84.4911 357° North 267 307 25,000  Level Indianapolis Center
Wed 02:18:23 AM 36.3197 -84.4953 357° North 263 303 25,000 50 Level Indianapolis Center
Wed 02:19:23 AM 36.3939 -84.4992 358° North 265 305 25,100 50 Climbing Indianapolis Center
Wed 02:20:23 AM 36.4681 -84.5019 358° North 267 307 25,100  Level Indianapolis Center
Wed 02:21:23 AM 36.5414 -84.5064 357° North 264 304 25,100  Level Indianapolis Center
Wed 02:22:24 AM 36.6153 -84.5111 357° North 267 307 25,100  Level Indianapolis Center
Wed 02:23:24 AM 36.6892 -84.5172 356° North 266 306 25,100  Level Indianapolis Center
Wed 02:24:24 AM 36.7636 -84.5222 357° North 267 307 25,100  Level Indianapolis Center
Wed 02:25:24 AM 36.8383 -84.5269 357° North 267 307 25,100  Level Indianapolis Center
Wed 02:26:24 AM 36.9136 -84.5308 358° North 271 312 25,100  Level Indianapolis Center
Wed 02:27:24 AM 36.9883 -84.5364 357° North 269 310 25,100  Level Indianapolis Center
Wed 02:28:25 AM 37.0786 -84.5400 358° North 274 315 25,100  Level Indianapolis Center
Wed 02:29:25 AM 37.1547 -84.5472 356° North 274 315 25,100  Level Indianapolis Center
Wed 02:30:25 AM 37.2306 -84.5503 358° North 273 314 25,100  Level Indianapolis Center
Wed 02:31:25 AM 37.3067 -84.5581 355° North 273 314 25,100  Level Indianapolis Center
Wed 02:32:25 AM 37.3839 -84.5611 358° North 276 318 25,100  Level Indianapolis Center
Wed 02:33:25 AM 37.4458 -84.5647 357° North 270 311 25,100  Level Indianapolis Center
Wed 02:34:26 AM 37.5217 -84.5689 358° North 271 312 25,100  Level Indianapolis Center
Wed 02:35:26 AM 37.5975 -84.5739 357° North 273 314 25,100  Level Indianapolis Center
Wed 02:36:26 AM 37.6708 -84.5789 357° North 265 305 25,100 -550 Level Indianapolis Center
Wed 02:37:26 AM 37.7456 -84.5842 357° North 268 308 24,000 -1,350 Descending Indianapolis Center
Wed 02:38:26 AM 37.8297 -84.5886 358° North 295 339 22,400 -1,500 Descending Indianapolis Center
Wed 02:39:26 AM 37.9156 -84.5967 356° North 306 352 21,000 -1,400 Descending Indianapolis Center
Wed 02:40:26 AM 38.0000 -84.5994 359° North 303 349 19,600 -1,488 Descending Indianapolis Center
Wed 02:41:27 AM 38.0828 -84.6058 357° North 299 344 18,000 -1,537 Descending Indianapolis Center
Wed 02:42:27 AM 38.1683 -84.6086 359° North 304 350 16,500 -1,550 Descending Indianapolis Center
Wed 02:43:27 AM 38.2489 -84.6150 356° North 294 338 14,900 -1,600 Descending Indianapolis Center
Wed 02:44:27 AM 38.3300 -84.6183 358° North 291 335 13,300 -1,550 Descending Indianapolis Center
Wed 02:45:27 AM 38.4067 -84.6347 350° North 284 327 11,800 -1,150 Descending Indianapolis Center
Wed 02:46:27 AM 38.4806 -84.6553 348° North 272 313 11,000 -750 Descending Indianapolis Center
Wed 02:47:27 AM 38.5475 -84.6744 347° North 251 289 10,300 -1,041 Descending Indianapolis Center
Wed 02:48:28 AM 38.6167 -84.6964 346° North 256 295 8,900 -1,339 Descending Indianapolis Center
Wed 02:49:28 AM 38.6822 -84.7158 347° North 256 295 7,600 -1,400 Descending Indianapolis Center
Wed 02:50:28 AM 38.7522 -84.7364 347° North 257 296 6,100 -1,400 Descending Indianapolis Center
Wed 02:51:28 AM 38.8331 -84.7569 349° North 255 293 4,800 -1,366 Descending Indianapolis Center
Wed 02:52:09 AM 38.8833 -84.7667 351° North 243 280 3,800 -772 Descending Cincinnati TRACON
Wed 02:53:09 AM 38.9333 -84.7833 345° North 213 245 3,500 -600 Descending Cincinnati TRACON
Wed 02:54:09 AM 39.0000 -84.8000 349° North 192 221 2,600 -600 Descending Cincinnati TRACON
Wed 02:55:09 AM 39.0333 -84.7833 21° North 163 188 2,300 -450 Descending Cincinnati TRACON
Wed 02:56:09 AM 39.0500 -84.7333 67° East 124 143 1,700 -600 Descending Cincinnati TRACON
Wed 02:57:09 AM 39.0500 -84.7000 90° East 109 125 1,100 -600 Descending Cincinnati TRACON
Wed 02:59:00 AM 39.0333 -84.6667 339° North  Level FlightAware Approximate

Login

Don't have an account? Register now (free) for customized features, flight alerts, and more!